Terminal Aerodrome Forecast
Issued by NWS

Home | Current Version | Previous Version | Text Only | Print | Product List | Glossary On
Versions: 1 2 3 4 5 6 7 8 9 10 11 12 13 14 15 16 17
000
FTUS46 KMTR 281700
TAFSNS
TAF
KSNS 281739Z 2818/2918 VRB04KT P6SM SCT011
     FM281830 29011KT P6SM FEW011 FEW014
     FM282100 28014G22KT P6SM FEW015
     FM290200 29009KT P6SM BKN015
     FM290700 25006KT P6SM OVC007
     FM291700 26003KT P6SM FEW007 SCT015=

USA.gov is the U.S. government's official web portal to all federal, state and local government web resources and services.